sensor_id;sensor_type;location;lat;lon;timestamp;P1;durP1;ratioP1;P2;durP2;ratioP2
8088;SDS011;57635;49.194;12.104;2022-12-29T00:01:53;6.00;;;5.57;;
8088;SDS011;57635;49.194;12.104;2022-12-29T00:04:21;6.27;;;5.80;;
8088;SDS011;57635;49.194;12.104;2022-12-29T00:06:49;5.67;;;5.27;;
8088;SDS011;57635;49.194;12.104;2022-12-29T00:09:19;7.17;;;6.47;;
8088;SDS011;57635;49.194;12.104;2022-12-29T00:11:46;6.07;;;5.67;;
8088;SDS011;57635;49.194;12.104;2022-12-29T00:14:14;5.47;;;5.13;;
8088;SDS011;57635;49.194;12.104;2022-12-29T00:16:59;5.70;;;5.30;;
8088;SDS011;57635;49.194;12.104;2022-12-29T00:19:27;5.23;;;4.83;;
8088;SDS011;57635;49.194;12.104;2022-12-29T00:22:13;5.83;;;5.33;;
8088;SDS011;57635;49.194;12.104;2022-12-29T00:25:00;5.13;;;4.77;;
8088;SDS011;57635;49.194;12.104;2022-12-29T00:27:45;6.37;;;5.77;;
8088;SDS011;57635;49.194;12.104;2022-12-29T00:30:33;6.13;;;5.57;;
8088;SDS011;57635;49.194;12.104;2022-12-29T00:33:19;5.23;;;4.73;;
8088;SDS011;57635;49.194;12.104;2022-12-29T00:36:06;6.23;;;5.67;;
8088;SDS011;57635;49.194;12.104;2022-12-29T00:38:36;6.30;;;5.73;;
8088;SDS011;57635;49.194;12.104;2022-12-29T00:41:23;5.50;;;5.10;;
8088;SDS011;57635;49.194;12.104;2022-12-29T00:44:09;5.50;;;5.10;;
8088;SDS011;57635;49.194;12.104;2022-12-29T00:46:40;6.20;;;5.50;;
8088;SDS011;57635;49.194;12.104;2022-12-29T00:49:09;5.67;;;5.27;;
8088;SDS011;57635;49.194;12.104;2022-12-29T00:51:56;5.97;;;5.43;;
8088;SDS011;57635;49.194;12.104;2022-12-29T00:54:24;5.27;;;4.87;;
8088;SDS011;57635;49.194;12.104;2022-12-29T00:56:53;6.17;;;5.57;;
8088;SDS011;57635;49.194;12.104;2022-12-29T00:59:21;6.40;;;5.77;;
8088;SDS011;57635;49.194;12.104;2022-12-29T01:01:50;5.83;;;5.33;;
8088;SDS011;57635;49.194;12.104;2022-12-29T01:04:19;5.60;;;5.20;;
8088;SDS011;57635;49.194;12.104;2022-12-29T01:06:47;5.97;;;5.47;;
8088;SDS011;57635;49.194;12.104;2022-12-29T01:09:16;6.10;;;5.60;;
8088;SDS011;57635;49.194;12.104;2022-12-29T01:12:03;5.60;;;5.10;;
8088;SDS011;57635;49.194;12.104;2022-12-29T01:14:31;5.93;;;5.43;;
8088;SDS011;57635;49.194;12.104;2022-12-29T01:16:59;6.10;;;5.50;;
8088;SDS011;57635;49.194;12.104;2022-12-29T01:19:26;5.30;;;4.90;;
8088;SDS011;57635;49.194;12.104;2022-12-29T01:21:54;5.90;;;5.50;;
8088;SDS011;57635;49.194;12.104;2022-12-29T01:24:22;6.43;;;5.90;;
8088;SDS011;57635;49.194;12.104;2022-12-29T01:26:50;5.53;;;5.13;;
8088;SDS011;57635;49.194;12.104;2022-12-29T01:29:19;5.47;;;5.07;;
8088;SDS011;57635;49.194;12.104;2022-12-29T01:31:46;5.53;;;5.17;;
8088;SDS011;57635;49.194;12.104;2022-12-29T01:34:16;6.47;;;5.87;;
8088;SDS011;57635;49.194;12.104;2022-12-29T01:36:44;5.87;;;5.37;;
8088;SDS011;57635;49.194;12.104;2022-12-29T01:39:11;5.37;;;4.97;;
8088;SDS011;57635;49.194;12.104;2022-12-29T01:41:39;5.60;;;5.07;;
8088;SDS011;57635;49.194;12.104;2022-12-29T01:47:09;6.73;;;5.37;;
8088;SDS011;57635;49.194;12.104;2022-12-29T01:49:37;5.47;;;5.17;;
8088;SDS011;57635;49.194;12.104;2022-12-29T01:52:05;5.50;;;5.10;;
8088;SDS011;57635;49.194;12.104;2022-12-29T01:54:36;5.03;;;4.63;;
8088;SDS011;57635;49.194;12.104;2022-12-29T01:57:07;5.10;;;4.80;;
8088;SDS011;57635;49.194;12.104;2022-12-29T01:59:36;5.03;;;4.73;;
8088;SDS011;57635;49.194;12.104;2022-12-29T02:02:07;5.47;;;5.10;;
8088;SDS011;57635;49.194;12.104;2022-12-29T02:04:36;5.13;;;4.73;;
8088;SDS011;57635;49.194;12.104;2022-12-29T02:07:07;5.47;;;5.03;;
8088;SDS011;57635;49.194;12.104;2022-12-29T02:09:38;5.67;;;5.17;;
8088;SDS011;57635;49.194;12.104;2022-12-29T02:12:05;6.37;;;4.73;;
8088;SDS011;57635;49.194;12.104;2022-12-29T02:14:33;5.30;;;4.93;;
8088;SDS011;57635;49.194;12.104;2022-12-29T02:17:03;5.60;;;5.23;;
8088;SDS011;57635;49.194;12.104;2022-12-29T02:19:45;5.03;;;4.67;;
8088;SDS011;57635;49.194;12.104;2022-12-29T02:22:27;5.13;;;4.73;;
8088;SDS011;57635;49.194;12.104;2022-12-29T02:28:09;4.73;;;4.43;;
8088;SDS011;57635;49.194;12.104;2022-12-29T02:30:51;4.77;;;4.37;;
8088;SDS011;57635;49.194;12.104;2022-12-29T02:33:30;5.10;;;4.67;;
8088;SDS011;57635;49.194;12.104;2022-12-29T02:36:06;5.07;;;4.77;;
8088;SDS011;57635;49.194;12.104;2022-12-29T02:38:42;4.07;;;3.77;;
8088;SDS011;57635;49.194;12.104;2022-12-29T02:41:19;4.90;;;4.60;;
8088;SDS011;57635;49.194;12.104;2022-12-29T02:43:50;5.00;;;4.60;;
8088;SDS011;57635;49.194;12.104;2022-12-29T02:46:25;4.27;;;4.07;;
8088;SDS011;57635;49.194;12.104;2022-12-29T02:48:57;5.47;;;5.03;;
8088;SDS011;57635;49.194;12.104;2022-12-29T02:51:29;5.27;;;4.87;;
8088;SDS011;57635;49.194;12.104;2022-12-29T02:53:59;5.20;;;4.80;;
8088;SDS011;57635;49.194;12.104;2022-12-29T02:56:56;5.17;;;4.33;;
8088;SDS011;57635;49.194;12.104;2022-12-29T02:59:23;4.97;;;4.67;;
8088;SDS011;57635;49.194;12.104;2022-12-29T03:01:58;4.80;;;4.40;;
8088;SDS011;57635;49.194;12.104;2022-12-29T03:04:51;5.63;;;4.90;;
8088;SDS011;57635;49.194;12.104;2022-12-29T03:07:40;5.80;;;4.63;;
8088;SDS011;57635;49.194;12.104;2022-12-29T03:10:15;4.60;;;4.20;;
8088;SDS011;57635;49.194;12.104;2022-12-29T03:12:48;4.93;;;4.43;;
8088;SDS011;57635;49.194;12.104;2022-12-29T03:15:39;4.30;;;4.00;;
8088;SDS011;57635;49.194;12.104;2022-12-29T03:18:34;4.53;;;4.20;;
8088;SDS011;57635;49.194;12.104;2022-12-29T03:21:10;5.40;;;5.00;;
8088;SDS011;57635;49.194;12.104;2022-12-29T03:23:40;5.27;;;4.93;;
8088;SDS011;57635;49.194;12.104;2022-12-29T03:26:10;4.63;;;4.23;;
8088;SDS011;57635;49.194;12.104;2022-12-29T03:28:40;4.87;;;4.53;;
8088;SDS011;57635;49.194;12.104;2022-12-29T03:31:10;4.70;;;4.40;;
8088;SDS011;57635;49.194;12.104;2022-12-29T03:33:40;4.53;;;4.23;;
8088;SDS011;57635;49.194;12.104;2022-12-29T03:36:10;6.77;;;4.63;;
8088;SDS011;57635;49.194;12.104;2022-12-29T03:38:40;4.27;;;3.97;;
8088;SDS011;57635;49.194;12.104;2022-12-29T03:41:11;5.00;;;4.60;;
8088;SDS011;57635;49.194;12.104;2022-12-29T03:43:41;5.17;;;4.57;;
8088;SDS011;57635;49.194;12.104;2022-12-29T03:46:09;4.47;;;4.17;;
8088;SDS011;57635;49.194;12.104;2022-12-29T03:48:36;4.30;;;3.83;;
8088;SDS011;57635;49.194;12.104;2022-12-29T03:51:05;4.37;;;4.07;;
8088;SDS011;57635;49.194;12.104;2022-12-29T03:53:33;4.20;;;3.80;;
8088;SDS011;57635;49.194;12.104;2022-12-29T03:56:00;4.60;;;4.30;;
8088;SDS011;57635;49.194;12.104;2022-12-29T03:58:28;3.63;;;3.40;;
8088;SDS011;57635;49.194;12.104;2022-12-29T04:00:56;4.20;;;3.90;;
8088;SDS011;57635;49.194;12.104;2022-12-29T04:03:23;4.43;;;4.17;;
8088;SDS011;57635;49.194;12.104;2022-12-29T04:05:51;4.37;;;3.97;;
8088;SDS011;57635;49.194;12.104;2022-12-29T04:08:20;4.40;;;4.10;;
8088;SDS011;57635;49.194;12.104;2022-12-29T04:10:47;4.47;;;4.17;;
8088;SDS011;57635;49.194;12.104;2022-12-29T04:13:15;4.73;;;4.33;;
8088;SDS011;57635;49.194;12.104;2022-12-29T04:15:43;5.03;;;3.80;;
8088;SDS011;57635;49.194;12.104;2022-12-29T04:18:11;4.03;;;3.73;;
8088;SDS011;57635;49.194;12.104;2022-12-29T04:20:39;4.20;;;3.80;;
8088;SDS011;57635;49.194;12.104;2022-12-29T04:23:26;4.80;;;4.10;;
8088;SDS011;57635;49.194;12.104;2022-12-29T04:25:54;3.87;;;3.57;;
8088;SDS011;57635;49.194;12.104;2022-12-29T04:28:22;4.93;;;4.30;;
8088;SDS011;57635;49.194;12.104;2022-12-29T04:30:50;4.20;;;3.90;;
8088;SDS011;57635;49.194;12.104;2022-12-29T04:33:17;4.07;;;3.73;;
8088;SDS011;57635;49.194;12.104;2022-12-29T04:35:45;4.67;;;4.27;;
8088;SDS011;57635;49.194;12.104;2022-12-29T04:38:13;4.50;;;4.20;;
8088;SDS011;57635;49.194;12.104;2022-12-29T04:40:44;4.03;;;3.77;;
8088;SDS011;57635;49.194;12.104;2022-12-29T04:43:12;4.33;;;4.00;;
8088;SDS011;57635;49.194;12.104;2022-12-29T04:45:42;4.73;;;4.33;;
8088;SDS011;57635;49.194;12.104;2022-12-29T04:48:10;4.50;;;4.20;;
8088;SDS011;57635;49.194;12.104;2022-12-29T04:50:38;3.97;;;3.67;;
8088;SDS011;57635;49.194;12.104;2022-12-29T04:53:06;4.20;;;3.90;;
8088;SDS011;57635;49.194;12.104;2022-12-29T04:55:34;3.97;;;3.67;;
8088;SDS011;57635;49.194;12.104;2022-12-29T04:58:03;3.80;;;3.50;;
8088;SDS011;57635;49.194;12.104;2022-12-29T05:00:31;4.87;;;4.27;;
8088;SDS011;57635;49.194;12.104;2022-12-29T05:02:59;4.77;;;3.73;;
8088;SDS011;57635;49.194;12.104;2022-12-29T05:05:27;3.50;;;3.30;;
8088;SDS011;57635;49.194;12.104;2022-12-29T05:07:55;3.90;;;3.70;;
8088;SDS011;57635;49.194;12.104;2022-12-29T05:10:22;4.43;;;4.13;;
8088;SDS011;57635;49.194;12.104;2022-12-29T05:12:50;4.40;;;4.10;;
8088;SDS011;57635;49.194;12.104;2022-12-29T05:15:19;4.80;;;4.13;;
8088;SDS011;57635;49.194;12.104;2022-12-29T05:17:46;4.13;;;3.83;;
8088;SDS011;57635;49.194;12.104;2022-12-29T05:20:14;5.03;;;4.10;;
8088;SDS011;57635;49.194;12.104;2022-12-29T05:22:42;4.37;;;3.87;;
8088;SDS011;57635;49.194;12.104;2022-12-29T05:25:10;5.13;;;4.27;;
8088;SDS011;57635;49.194;12.104;2022-12-29T05:27:37;4.50;;;4.10;;
8088;SDS011;57635;49.194;12.104;2022-12-29T05:30:05;4.27;;;3.97;;
8088;SDS011;57635;49.194;12.104;2022-12-29T05:32:35;4.17;;;3.70;;
8088;SDS011;57635;49.194;12.104;2022-12-29T05:35:03;3.60;;;3.40;;
8088;SDS011;57635;49.194;12.104;2022-12-29T05:37:31;3.90;;;3.70;;
8088;SDS011;57635;49.194;12.104;2022-12-29T05:39:58;4.10;;;3.80;;
8088;SDS011;57635;49.194;12.104;2022-12-29T05:42:26;4.57;;;4.27;;
8088;SDS011;57635;49.194;12.104;2022-12-29T05:44:53;4.70;;;4.30;;
8088;SDS011;57635;49.194;12.104;2022-12-29T05:47:21;4.57;;;3.77;;
8088;SDS011;57635;49.194;12.104;2022-12-29T05:49:50;4.53;;;4.13;;
8088;SDS011;57635;49.194;12.104;2022-12-29T05:52:18;4.37;;;3.97;;
8088;SDS011;57635;49.194;12.104;2022-12-29T05:54:45;4.30;;;4.00;;
8088;SDS011;57635;49.194;12.104;2022-12-29T05:57:13;5.13;;;4.73;;
8088;SDS011;57635;49.194;12.104;2022-12-29T05:59:40;3.93;;;3.60;;
8088;SDS011;57635;49.194;12.104;2022-12-29T06:02:08;4.23;;;4.03;;
8088;SDS011;57635;49.194;12.104;2022-12-29T06:04:36;4.23;;;3.93;;
8088;SDS011;57635;49.194;12.104;2022-12-29T06:07:05;4.77;;;4.20;;
8088;SDS011;57635;49.194;12.104;2022-12-29T06:09:33;4.67;;;4.20;;
8088;SDS011;57635;49.194;12.104;2022-12-29T06:12:00;5.03;;;4.40;;
8088;SDS011;57635;49.194;12.104;2022-12-29T06:14:28;4.47;;;4.13;;
8088;SDS011;57635;49.194;12.104;2022-12-29T06:16:55;4.53;;;4.23;;
8088;SDS011;57635;49.194;12.104;2022-12-29T06:19:23;4.43;;;4.03;;
8088;SDS011;57635;49.194;12.104;2022-12-29T06:21:50;4.50;;;4.03;;
8088;SDS011;57635;49.194;12.104;2022-12-29T06:24:20;3.90;;;3.60;;
8088;SDS011;57635;49.194;12.104;2022-12-29T06:26:47;3.97;;;3.67;;
8088;SDS011;57635;49.194;12.104;2022-12-29T06:29:15;3.80;;;3.60;;
8088;SDS011;57635;49.194;12.104;2022-12-29T06:31:44;4.43;;;4.03;;
8088;SDS011;57635;49.194;12.104;2022-12-29T06:34:12;4.17;;;3.87;;
8088;SDS011;57635;49.194;12.104;2022-12-29T06:36:40;4.63;;;4.23;;
8088;SDS011;57635;49.194;12.104;2022-12-29T06:39:07;4.33;;;4.03;;
8088;SDS011;57635;49.194;12.104;2022-12-29T06:41:36;5.93;;;5.53;;
8088;SDS011;57635;49.194;12.104;2022-12-29T06:44:04;4.07;;;3.73;;
8088;SDS011;57635;49.194;12.104;2022-12-29T06:46:31;4.40;;;4.00;;
8088;SDS011;57635;49.194;12.104;2022-12-29T06:48:59;3.97;;;3.70;;
8088;SDS011;57635;49.194;12.104;2022-12-29T06:51:26;4.37;;;3.97;;
8088;SDS011;57635;49.194;12.104;2022-12-29T06:53:54;4.73;;;4.43;;
8088;SDS011;57635;49.194;12.104;2022-12-29T06:56:21;5.20;;;3.83;;
8088;SDS011;57635;49.194;12.104;2022-12-29T06:58:50;4.23;;;3.93;;
8088;SDS011;57635;49.194;12.104;2022-12-29T07:01:18;4.43;;;4.00;;
8088;SDS011;57635;49.194;12.104;2022-12-29T07:03:46;4.13;;;3.83;;
8088;SDS011;57635;49.194;12.104;2022-12-29T07:06:13;4.43;;;4.07;;
8088;SDS011;57635;49.194;12.104;2022-12-29T07:08:41;4.30;;;4.03;;
8088;SDS011;57635;49.194;12.104;2022-12-29T07:11:09;4.30;;;4.00;;
8088;SDS011;57635;49.194;12.104;2022-12-29T07:13:37;4.67;;;4.27;;
8088;SDS011;57635;49.194;12.104;2022-12-29T07:16:06;4.83;;;4.10;;
8088;SDS011;57635;49.194;12.104;2022-12-29T07:18:34;4.20;;;4.00;;
8088;SDS011;57635;49.194;12.104;2022-12-29T07:21:02;4.40;;;4.10;;
8088;SDS011;57635;49.194;12.104;2022-12-29T07:23:30;5.30;;;4.90;;
8088;SDS011;57635;49.194;12.104;2022-12-29T07:25:58;7.03;;;6.33;;
8088;SDS011;57635;49.194;12.104;2022-12-29T07:28:27;8.87;;;7.97;;
8088;SDS011;57635;49.194;12.104;2022-12-29T07:30:54;5.03;;;4.53;;
8088;SDS011;57635;49.194;12.104;2022-12-29T07:33:23;5.60;;;5.10;;
8088;SDS011;57635;49.194;12.104;2022-12-29T07:35:51;4.70;;;4.40;;
8088;SDS011;57635;49.194;12.104;2022-12-29T07:38:18;5.97;;;5.40;;
8088;SDS011;57635;49.194;12.104;2022-12-29T07:40:46;5.00;;;4.70;;
8088;SDS011;57635;49.194;12.104;2022-12-29T07:43:14;5.53;;;5.03;;
8088;SDS011;57635;49.194;12.104;2022-12-29T07:45:41;4.80;;;4.33;;
8088;SDS011;57635;49.194;12.104;2022-12-29T07:48:09;4.60;;;4.20;;
8088;SDS011;57635;49.194;12.104;2022-12-29T07:50:38;5.23;;;4.57;;
8088;SDS011;57635;49.194;12.104;2022-12-29T07:53:06;4.60;;;4.20;;
8088;SDS011;57635;49.194;12.104;2022-12-29T07:55:33;5.87;;;4.87;;
8088;SDS011;57635;49.194;12.104;2022-12-29T07:58:01;4.97;;;4.50;;
8088;SDS011;57635;49.194;12.104;2022-12-29T08:00:29;4.80;;;4.40;;
8088;SDS011;57635;49.194;12.104;2022-12-29T08:02:56;4.40;;;4.00;;
8088;SDS011;57635;49.194;12.104;2022-12-29T08:05:24;4.70;;;4.30;;
8088;SDS011;57635;49.194;12.104;2022-12-29T08:07:53;6.03;;;4.03;;
8088;SDS011;57635;49.194;12.104;2022-12-29T08:10:21;3.70;;;3.40;;
8088;SDS011;57635;49.194;12.104;2022-12-29T08:12:49;5.17;;;4.50;;
8088;SDS011;57635;49.194;12.104;2022-12-29T08:15:16;4.33;;;4.03;;
8088;SDS011;57635;49.194;12.104;2022-12-29T08:17:44;3.93;;;3.63;;
8088;SDS011;57635;49.194;12.104;2022-12-29T08:20:12;3.73;;;3.53;;
8088;SDS011;57635;49.194;12.104;2022-12-29T08:22:39;4.20;;;3.90;;
8088;SDS011;57635;49.194;12.104;2022-12-29T08:25:09;3.73;;;3.50;;
8088;SDS011;57635;49.194;12.104;2022-12-29T08:27:36;3.90;;;3.60;;
8088;SDS011;57635;49.194;12.104;2022-12-29T08:30:04;4.00;;;3.70;;
8088;SDS011;57635;49.194;12.104;2022-12-29T08:32:33;4.27;;;3.97;;
8088;SDS011;57635;49.194;12.104;2022-12-29T08:35:00;3.60;;;3.40;;
8088;SDS011;57635;49.194;12.104;2022-12-29T08:37:28;4.73;;;4.33;;
8088;SDS011;57635;49.194;12.104;2022-12-29T08:39:56;4.13;;;3.73;;
8088;SDS011;57635;49.194;12.104;2022-12-29T08:42:26;4.13;;;3.87;;
8088;SDS011;57635;49.194;12.104;2022-12-29T08:44:57;3.77;;;3.57;;
8088;SDS011;57635;49.194;12.104;2022-12-29T08:47:25;4.77;;;4.30;;
8088;SDS011;57635;49.194;12.104;2022-12-29T08:49:52;5.90;;;4.87;;
8088;SDS011;57635;49.194;12.104;2022-12-29T08:52:20;5.27;;;4.87;;
8088;SDS011;57635;49.194;12.104;2022-12-29T08:54:49;5.17;;;4.60;;
8088;SDS011;57635;49.194;12.104;2022-12-29T08:57:16;4.20;;;3.90;;
8088;SDS011;57635;49.194;12.104;2022-12-29T08:59:45;4.43;;;4.00;;
8088;SDS011;57635;49.194;12.104;2022-12-29T09:02:13;4.60;;;4.30;;
8088;SDS011;57635;49.194;12.104;2022-12-29T09:04:49;4.10;;;3.80;;
8088;SDS011;57635;49.194;12.104;2022-12-29T09:07:16;4.20;;;3.90;;
8088;SDS011;57635;49.194;12.104;2022-12-29T09:09:44;3.93;;;3.63;;
8088;SDS011;57635;49.194;12.104;2022-12-29T09:12:12;5.10;;;4.60;;
8088;SDS011;57635;49.194;12.104;2022-12-29T09:14:40;4.03;;;3.73;;
8088;SDS011;57635;49.194;12.104;2022-12-29T09:17:10;4.13;;;3.83;;
8088;SDS011;57635;49.194;12.104;2022-12-29T09:19:55;5.20;;;4.10;;
8088;SDS011;57635;49.194;12.104;2022-12-29T09:22:23;5.30;;;4.80;;
8088;SDS011;57635;49.194;12.104;2022-12-29T09:24:50;5.43;;;5.00;;
8088;SDS011;57635;49.194;12.104;2022-12-29T09:27:18;4.80;;;4.40;;
8088;SDS011;57635;49.194;12.104;2022-12-29T09:29:45;3.93;;;3.60;;
8088;SDS011;57635;49.194;12.104;2022-12-29T09:32:14;4.27;;;3.93;;
8088;SDS011;57635;49.194;12.104;2022-12-29T09:34:44;3.63;;;3.43;;
8088;SDS011;57635;49.194;12.104;2022-12-29T09:37:12;3.70;;;3.40;;
8088;SDS011;57635;49.194;12.104;2022-12-29T09:39:39;4.60;;;4.07;;
8088;SDS011;57635;49.194;12.104;2022-12-29T09:42:08;4.07;;;3.77;;
8088;SDS011;57635;49.194;12.104;2022-12-29T09:44:48;4.87;;;4.43;;
8088;SDS011;57635;49.194;12.104;2022-12-29T09:47:22;4.00;;;3.80;;
8088;SDS011;57635;49.194;12.104;2022-12-29T09:49:52;4.30;;;4.00;;
8088;SDS011;57635;49.194;12.104;2022-12-29T09:52:22;4.90;;;4.13;;
8088;SDS011;57635;49.194;12.104;2022-12-29T09:54:52;4.47;;;3.90;;
8088;SDS011;57635;49.194;12.104;2022-12-29T09:57:29;4.63;;;4.27;;
8088;SDS011;57635;49.194;12.104;2022-12-29T10:00:03;4.20;;;3.90;;
8088;SDS011;57635;49.194;12.104;2022-12-29T10:02:41;3.63;;;3.37;;
8088;SDS011;57635;49.194;12.104;2022-12-29T10:05:16;4.27;;;3.90;;
8088;SDS011;57635;49.194;12.104;2022-12-29T10:07:49;4.13;;;3.83;;
8088;SDS011;57635;49.194;12.104;2022-12-29T10:10:24;4.33;;;4.03;;
8088;SDS011;57635;49.194;12.104;2022-12-29T10:13:01;4.23;;;3.87;;
8088;SDS011;57635;49.194;12.104;2022-12-29T10:15:39;4.53;;;4.13;;
8088;SDS011;57635;49.194;12.104;2022-12-29T10:21:05;4.53;;;3.90;;
8088;SDS011;57635;49.194;12.104;2022-12-29T10:23:37;4.23;;;3.83;;
8088;SDS011;57635;49.194;12.104;2022-12-29T10:26:08;3.90;;;3.60;;
8088;SDS011;57635;49.194;12.104;2022-12-29T10:28:42;3.77;;;3.53;;
8088;SDS011;57635;49.194;12.104;2022-12-29T10:31:13;4.07;;;3.83;;
8088;SDS011;57635;49.194;12.104;2022-12-29T10:33:43;4.10;;;3.80;;
8088;SDS011;57635;49.194;12.104;2022-12-29T10:36:16;4.23;;;3.83;;
8088;SDS011;57635;49.194;12.104;2022-12-29T10:38:48;4.77;;;3.63;;
8088;SDS011;57635;49.194;12.104;2022-12-29T10:41:20;4.90;;;3.90;;
8088;SDS011;57635;49.194;12.104;2022-12-29T10:43:49;3.37;;;3.17;;
8088;SDS011;57635;49.194;12.104;2022-12-29T10:46:19;4.40;;;4.10;;
8088;SDS011;57635;49.194;12.104;2022-12-29T10:48:50;3.97;;;3.60;;
8088;SDS011;57635;49.194;12.104;2022-12-29T10:51:20;4.67;;;3.30;;
8088;SDS011;57635;49.194;12.104;2022-12-29T10:53:50;6.70;;;3.93;;
8088;SDS011;57635;49.194;12.104;2022-12-29T10:56:22;3.90;;;3.60;;
8088;SDS011;57635;49.194;12.104;2022-12-29T10:58:55;3.50;;;3.20;;
8088;SDS011;57635;49.194;12.104;2022-12-29T11:01:24;3.73;;;3.43;;
8088;SDS011;57635;49.194;12.104;2022-12-29T11:04:00;3.67;;;3.37;;
8088;SDS011;57635;49.194;12.104;2022-12-29T11:06:30;4.00;;;3.70;;
8088;SDS011;57635;49.194;12.104;2022-12-29T11:08:59;3.83;;;3.23;;
8088;SDS011;57635;49.194;12.104;2022-12-29T11:11:32;4.00;;;3.70;;
8088;SDS011;57635;49.194;12.104;2022-12-29T11:14:02;4.20;;;3.77;;
8088;SDS011;57635;49.194;12.104;2022-12-29T11:16:35;4.40;;;4.00;;
8088;SDS011;57635;49.194;12.104;2022-12-29T11:19:04;3.90;;;3.67;;
8088;SDS011;57635;49.194;12.104;2022-12-29T11:21:33;3.83;;;3.60;;
8088;SDS011;57635;49.194;12.104;2022-12-29T11:24:18;6.90;;;5.47;;
8088;SDS011;57635;49.194;12.104;2022-12-29T11:26:47;4.20;;;3.90;;
8088;SDS011;57635;49.194;12.104;2022-12-29T11:29:17;3.70;;;3.50;;
8088;SDS011;57635;49.194;12.104;2022-12-29T11:31:49;4.27;;;3.87;;
8088;SDS011;57635;49.194;12.104;2022-12-29T11:34:20;3.67;;;3.40;;
8088;SDS011;57635;49.194;12.104;2022-12-29T11:36:49;3.77;;;3.43;;
8088;SDS011;57635;49.194;12.104;2022-12-29T11:42:05;6.83;;;3.83;;
8088;SDS011;57635;49.194;12.104;2022-12-29T11:44:37;6.20;;;4.10;;
8088;SDS011;57635;49.194;12.104;2022-12-29T11:47:09;4.40;;;4.10;;
8088;SDS011;57635;49.194;12.104;2022-12-29T11:49:42;4.73;;;3.80;;
8088;SDS011;57635;49.194;12.104;2022-12-29T11:52:20;4.27;;;3.97;;
8088;SDS011;57635;49.194;12.104;2022-12-29T11:54:49;4.97;;;4.40;;
8088;SDS011;57635;49.194;12.104;2022-12-29T11:57:17;4.40;;;3.80;;
8088;SDS011;57635;49.194;12.104;2022-12-29T11:59:49;4.50;;;4.00;;
8088;SDS011;57635;49.194;12.104;2022-12-29T12:02:23;4.63;;;4.23;;
8088;SDS011;57635;49.194;12.104;2022-12-29T12:05:11;4.10;;;3.80;;
8088;SDS011;57635;49.194;12.104;2022-12-29T12:07:42;4.13;;;3.80;;
8088;SDS011;57635;49.194;12.104;2022-12-29T12:10:22;3.80;;;3.50;;
8088;SDS011;57635;49.194;12.104;2022-12-29T12:12:52;4.77;;;3.77;;
8088;SDS011;57635;49.194;12.104;2022-12-29T12:15:24;4.63;;;4.17;;
8088;SDS011;57635;49.194;12.104;2022-12-29T12:17:55;4.10;;;3.80;;
8088;SDS011;57635;49.194;12.104;2022-12-29T12:20:32;4.10;;;3.47;;
8088;SDS011;57635;49.194;12.104;2022-12-29T12:23:06;4.80;;;3.70;;
8088;SDS011;57635;49.194;12.104;2022-12-29T12:25:43;4.37;;;3.97;;
8088;SDS011;57635;49.194;12.104;2022-12-29T12:28:17;4.73;;;3.93;;
8088;SDS011;57635;49.194;12.104;2022-12-29T12:30:48;6.17;;;3.83;;
8088;SDS011;57635;49.194;12.104;2022-12-29T12:33:18;3.73;;;3.53;;
8088;SDS011;57635;49.194;12.104;2022-12-29T12:35:53;3.43;;;3.20;;
8088;SDS011;57635;49.194;12.104;2022-12-29T12:38:32;8.50;;;5.20;;
8088;SDS011;57635;49.194;12.104;2022-12-29T12:41:05;3.87;;;3.57;;
8088;SDS011;57635;49.194;12.104;2022-12-29T12:43:43;4.00;;;3.70;;
8088;SDS011;57635;49.194;12.104;2022-12-29T12:46:15;4.83;;;3.57;;
8088;SDS011;57635;49.194;12.104;2022-12-29T12:48:57;4.00;;;3.73;;
8088;SDS011;57635;49.194;12.104;2022-12-29T12:51:33;4.23;;;3.93;;
8088;SDS011;57635;49.194;12.104;2022-12-29T12:54:11;4.10;;;3.80;;
8088;SDS011;57635;49.194;12.104;2022-12-29T12:56:47;4.63;;;4.07;;
8088;SDS011;57635;49.194;12.104;2022-12-29T12:59:26;4.67;;;4.27;;
8088;SDS011;57635;49.194;12.104;2022-12-29T13:02:01;5.27;;;3.80;;
8088;SDS011;57635;49.194;12.104;2022-12-29T13:04:32;3.73;;;3.53;;
8088;SDS011;57635;49.194;12.104;2022-12-29T13:07:12;4.07;;;3.77;;
8088;SDS011;57635;49.194;12.104;2022-12-29T13:09:48;4.87;;;3.90;;
8088;SDS011;57635;49.194;12.104;2022-12-29T13:12:27;4.30;;;3.90;;
8088;SDS011;57635;49.194;12.104;2022-12-29T13:15:02;5.07;;;4.57;;
8088;SDS011;57635;49.194;12.104;2022-12-29T13:17:36;4.20;;;3.90;;
8088;SDS011;57635;49.194;12.104;2022-12-29T13:20:11;4.77;;;4.43;;
8088;SDS011;57635;49.194;12.104;2022-12-29T13:22:50;7.47;;;4.50;;
8088;SDS011;57635;49.194;12.104;2022-12-29T13:25:26;5.17;;;4.67;;
8088;SDS011;57635;49.194;12.104;2022-12-29T13:27:58;5.33;;;3.97;;
8088;SDS011;57635;49.194;12.104;2022-12-29T13:30:29;5.23;;;4.17;;
8088;SDS011;57635;49.194;12.104;2022-12-29T13:33:02;4.80;;;4.40;;
8088;SDS011;57635;49.194;12.104;2022-12-29T13:35:52;4.83;;;4.53;;
8088;SDS011;57635;49.194;12.104;2022-12-29T13:38:25;4.87;;;4.47;;
8088;SDS011;57635;49.194;12.104;2022-12-29T13:40:58;4.87;;;4.57;;
8088;SDS011;57635;49.194;12.104;2022-12-29T13:43:28;5.10;;;4.27;;
8088;SDS011;57635;49.194;12.104;2022-12-29T13:45:58;3.90;;;3.60;;
8088;SDS011;57635;49.194;12.104;2022-12-29T13:48:31;5.40;;;4.00;;
8088;SDS011;57635;49.194;12.104;2022-12-29T13:51:04;3.63;;;3.43;;
8088;SDS011;57635;49.194;12.104;2022-12-29T13:53:35;4.20;;;3.90;;
8088;SDS011;57635;49.194;12.104;2022-12-29T13:56:11;4.80;;;4.30;;
8088;SDS011;57635;49.194;12.104;2022-12-29T13:58:41;3.80;;;3.60;;
8088;SDS011;57635;49.194;12.104;2022-12-29T14:01:12;6.00;;;4.07;;
8088;SDS011;57635;49.194;12.104;2022-12-29T14:03:46;4.60;;;3.90;;
8088;SDS011;57635;49.194;12.104;2022-12-29T14:06:22;4.43;;;4.10;;
8088;SDS011;57635;49.194;12.104;2022-12-29T14:08:53;4.70;;;4.40;;
8088;SDS011;57635;49.194;12.104;2022-12-29T14:11:23;4.43;;;4.03;;
8088;SDS011;57635;49.194;12.104;2022-12-29T14:13:54;4.60;;;4.20;;
8088;SDS011;57635;49.194;12.104;2022-12-29T14:16:26;4.70;;;4.00;;
8088;SDS011;57635;49.194;12.104;2022-12-29T14:18:55;6.13;;;4.67;;
8088;SDS011;57635;49.194;12.104;2022-12-29T14:21:25;4.10;;;3.80;;
8088;SDS011;57635;49.194;12.104;2022-12-29T14:24:25;4.20;;;3.87;;
8088;SDS011;57635;49.194;12.104;2022-12-29T14:33:16;6.47;;;5.87;;
8088;SDS011;57635;49.194;12.104;2022-12-29T14:35:44;5.47;;;5.07;;
8088;SDS011;57635;49.194;12.104;2022-12-29T14:38:19;6.70;;;4.90;;
8088;SDS011;57635;49.194;12.104;2022-12-29T14:40:51;5.23;;;4.80;;
8088;SDS011;57635;49.194;12.104;2022-12-29T14:43:24;3.77;;;3.57;;
8088;SDS011;57635;49.194;12.104;2022-12-29T14:45:54;4.20;;;3.90;;
8088;SDS011;57635;49.194;12.104;2022-12-29T14:48:31;4.67;;;4.27;;
8088;SDS011;57635;49.194;12.104;2022-12-29T14:51:01;5.20;;;4.80;;
8088;SDS011;57635;49.194;12.104;2022-12-29T14:53:42;5.63;;;5.13;;
8088;SDS011;57635;49.194;12.104;2022-12-29T14:56:13;4.40;;;3.97;;
8088;SDS011;57635;49.194;12.104;2022-12-29T14:58:44;4.20;;;3.90;;
8088;SDS011;57635;49.194;12.104;2022-12-29T15:01:19;4.20;;;3.90;;
8088;SDS011;57635;49.194;12.104;2022-12-29T15:03:50;4.30;;;4.00;;
8088;SDS011;57635;49.194;12.104;2022-12-29T15:06:20;5.13;;;4.67;;
8088;SDS011;57635;49.194;12.104;2022-12-29T15:08:50;5.00;;;4.60;;
8088;SDS011;57635;49.194;12.104;2022-12-29T15:11:22;4.03;;;3.60;;
8088;SDS011;57635;49.194;12.104;2022-12-29T15:13:50;4.90;;;4.20;;
8088;SDS011;57635;49.194;12.104;2022-12-29T15:16:22;4.35;;;3.95;;
8088;SDS011;57635;49.194;12.104;2022-12-29T15:18:51;3.67;;;3.40;;
8088;SDS011;57635;49.194;12.104;2022-12-29T15:21:20;4.13;;;3.50;;
8088;SDS011;57635;49.194;12.104;2022-12-29T15:23:51;3.13;;;2.93;;
8088;SDS011;57635;49.194;12.104;2022-12-29T15:26:20;3.90;;;3.50;;
8088;SDS011;57635;49.194;12.104;2022-12-29T15:28:49;2.77;;;2.63;;
8088;SDS011;57635;49.194;12.104;2022-12-29T15:31:18;3.23;;;3.03;;